createdAt,value
2019-02-22T00:00:23.651Z,50.70
2019-02-22T00:01:23.722Z,52.50
2019-02-22T00:02:23.645Z,50.90
2019-02-22T00:03:23.650Z,53.30
2019-02-22T00:04:23.612Z,52.90
2019-02-22T00:05:23.616Z,52.10
2019-02-22T00:06:23.585Z,53.20
2019-02-22T00:07:23.592Z,53.60
2019-02-22T00:08:23.563Z,51.70
2019-02-22T00:09:23.746Z,51.60
2019-02-22T00:10:23.545Z,53.20
2019-02-22T00:11:23.530Z,51.50
2019-02-22T00:12:23.583Z,52.90
2019-02-22T00:13:23.513Z,51.90
2019-02-22T00:14:23.499Z,53.80
2019-02-22T00:15:23.539Z,53.20
2019-02-22T00:16:23.475Z,52.10
2019-02-22T00:17:23.464Z,51.40
2019-02-22T00:18:23.460Z,52.30
2019-02-22T00:19:23.443Z,51.20
2019-02-22T00:20:23.465Z,51.80
2019-02-22T00:21:23.417Z,49.70
2019-02-22T00:22:23.407Z,50.70
2019-02-22T00:23:23.425Z,50.80
2019-02-22T00:24:23.379Z,50.30
2019-02-22T00:25:24.097Z,53.40
2019-02-22T00:26:23.424Z,51.40
2019-02-22T00:27:23.349Z,50.50
2019-02-22T00:28:23.368Z,49.60
2019-02-22T00:29:23.371Z,52.10
2019-02-22T00:30:23.332Z,52.60
2019-02-22T00:31:23.309Z,51.90
2019-02-22T00:32:24.101Z,52.30
2019-02-22T00:33:23.603Z,55.90
2019-02-22T00:34:23.348Z,53.90
2019-02-22T00:35:23.337Z,54.10
2019-02-22T00:36:23.473Z,53.40
2019-02-22T00:37:23.243Z,50.70
2019-02-22T00:38:23.306Z,50.50
2019-02-22T00:39:23.303Z,50.70
2019-02-22T00:40:23.210Z,48.20
2019-02-22T00:41:23.203Z,49.10
2019-02-22T00:42:23.183Z,53.30
2019-02-22T00:43:23.200Z,52.30
2019-02-22T00:44:23.175Z,50.60
2019-02-22T00:45:23.172Z,52.50
2019-02-22T00:46:23.234Z,53.30
2019-02-22T00:47:23.128Z,54.60
2019-02-22T00:48:23.136Z,53.60
2019-02-22T00:49:23.328Z,54.80
2019-02-22T00:50:23.088Z,55.90
2019-02-22T00:51:23.080Z,53.10
2019-02-22T00:52:23.125Z,51.10
2019-02-22T00:53:23.062Z,51.90
2019-02-22T00:54:23.070Z,52.40
2019-02-22T00:55:23.157Z,53.10
2019-02-22T00:56:23.045Z,50.00
2019-02-22T00:57:23.114Z,49.90
2019-02-22T00:58:23.076Z,49.30
2019-02-22T00:59:22.997Z,50.90
2019-02-22T01:00:23.032Z,53.40
2019-02-22T01:01:23.001Z,48.10
2019-02-22T01:02:22.967Z,50.90
2019-02-22T01:03:23.039Z,51.60
2019-02-22T01:04:22.932Z,52.90
2019-02-22T01:05:22.920Z,51.50
2019-02-22T01:06:23.633Z,49.60
2019-02-22T01:07:22.916Z,47.00
2019-02-22T01:08:23.083Z,48.10
2019-02-22T01:09:22.933Z,47.30
2019-02-22T01:10:30.695Z,51.00
2019-02-22T01:11:23.861Z,49.00
2019-02-22T01:12:22.916Z,49.30
2019-02-22T01:13:22.847Z,49.60
2019-02-22T01:14:22.856Z,48.70
2019-02-22T01:15:22.932Z,50.50
2019-02-22T01:16:22.979Z,49.60
2019-02-22T01:17:22.792Z,50.00
2019-02-22T01:18:22.795Z,51.10
2019-02-22T01:19:22.774Z,49.30
2019-02-22T01:20:22.778Z,50.60
2019-02-22T01:21:22.766Z,51.50
2019-02-22T01:22:22.808Z,49.30
2019-02-22T01:23:22.802Z,52.40
2019-02-22T01:24:22.702Z,52.30
2019-02-22T01:25:22.694Z,50.90
2019-02-22T01:26:22.725Z,52.40
2019-02-22T01:27:22.698Z,48.50
2019-02-22T01:28:22.660Z,52.50
2019-02-22T01:29:22.661Z,51.90
2019-02-22T01:30:22.651Z,50.30
2019-02-22T01:31:22.635Z,47.60
2019-02-22T01:32:22.915Z,50.50
2019-02-22T01:33:22.609Z,51.50
2019-02-22T01:34:22.592Z,52.80
2019-02-22T01:35:22.861Z,50.10
2019-02-22T01:36:22.570Z,48.70
2019-02-22T01:37:22.589Z,51.20
2019-02-22T01:38:22.789Z,51.30
2019-02-22T01:39:22.557Z,50.40
2019-02-22T01:40:22.527Z,51.60
2019-02-22T01:41:22.593Z,50.10
2019-02-22T01:42:22.560Z,50.10
2019-02-22T01:43:22.494Z,49.40
2019-02-22T01:44:29.574Z,49.80
2019-02-22T01:45:22.476Z,50.10
2019-02-22T01:46:22.461Z,53.30
2019-02-22T01:47:22.455Z,51.40
2019-02-22T01:48:22.476Z,53.40
2019-02-22T01:49:22.423Z,51.10
2019-02-22T01:50:22.411Z,47.70
2019-02-22T01:51:22.415Z,49.40
2019-02-22T01:52:22.392Z,50.30
2019-02-22T01:53:22.391Z,49.20
2019-02-22T01:54:22.446Z,49.40
2019-02-22T01:55:22.366Z,47.70
2019-02-22T01:56:22.343Z,48.30
2019-02-22T01:57:23.143Z,52.70
2019-02-22T01:58:22.338Z,52.70
2019-02-22T01:59:22.316Z,50.20
2019-02-22T02:00:22.337Z,50.30
2019-02-22T02:01:23.154Z,50.40
2019-02-22T02:02:22.305Z,49.60
2019-02-22T02:03:22.271Z,49.70
2019-02-22T02:04:22.264Z,51.10
2019-02-22T02:05:22.339Z,49.30
2019-02-22T02:06:22.245Z,50.50
2019-02-22T02:07:22.253Z,50.30
2019-02-22T02:08:22.243Z,50.40
2019-02-22T02:09:22.208Z,52.10
2019-02-22T02:10:22.202Z,50.30
2019-02-22T02:11:22.190Z,51.80
2019-02-22T02:12:22.225Z,51.90
2019-02-22T02:13:22.172Z,50.90
2019-02-22T02:14:22.168Z,53.20
2019-02-22T02:15:22.134Z,50.70
2019-02-22T02:16:22.125Z,52.80
2019-02-22T02:17:22.113Z,51.80
2019-02-22T02:18:22.133Z,52.10
2019-02-22T02:19:22.100Z,53.70
2019-02-22T02:20:22.172Z,51.80
2019-02-22T02:21:22.237Z,54.90
2019-02-22T02:22:22.057Z,54.00
2019-02-22T02:23:22.071Z,53.30
2019-02-22T02:24:22.121Z,55.60
2019-02-22T02:25:22.023Z,52.10
2019-02-22T02:26:22.023Z,52.00
2019-02-22T02:27:22.013Z,52.10
2019-02-22T02:28:21.999Z,55.00
2019-02-22T02:29:22.016Z,53.30
2019-02-22T02:30:21.967Z,52.90
2019-02-22T02:31:21.962Z,53.60
2019-02-22T02:32:21.948Z,53.00
2019-02-22T02:33:21.943Z,54.30
2019-02-22T02:34:21.922Z,55.40
2019-02-22T02:35:21.961Z,54.80
2019-02-22T02:36:21.927Z,54.20
2019-02-22T02:37:21.937Z,53.80
2019-02-22T02:38:21.875Z,53.30
2019-02-22T02:39:21.869Z,53.30
2019-02-22T02:40:21.899Z,52.90
2019-02-22T02:41:21.848Z,51.70
2019-02-22T02:42:21.830Z,54.30
2019-02-22T02:43:21.853Z,53.40
2019-02-22T02:44:21.850Z,55.50
2019-02-22T02:45:21.807Z,58.70
2019-02-22T02:46:21.812Z,55.20
2019-02-22T02:47:21.785Z,52.90
2019-02-22T02:48:21.941Z,57.00
2019-02-22T02:49:21.757Z,56.50
2019-02-22T02:50:21.748Z,54.20
2019-02-22T02:51:21.762Z,57.60
2019-02-22T02:52:21.721Z,57.40
2019-02-22T02:53:21.736Z,57.60
2019-02-22T02:54:21.692Z,57.20
2019-02-22T02:55:21.684Z,54.80
2019-02-22T02:56:21.682Z,54.50
2019-02-22T02:57:21.666Z,55.50
2019-02-22T02:58:21.653Z,57.40
2019-02-22T02:59:21.665Z,55.00
2019-02-22T03:00:21.647Z,53.60
2019-02-22T03:01:21.627Z,54.30
2019-02-22T03:02:21.627Z,54.70
2019-02-22T03:03:21.620Z,53.50
2019-02-22T03:04:21.669Z,56.80
2019-02-22T03:05:21.590Z,54.90
2019-02-22T03:06:21.602Z,55.50
2019-02-22T03:07:21.588Z,56.30
2019-02-22T03:08:21.540Z,56.30
2019-02-22T03:09:21.560Z,55.80
2019-02-22T03:10:21.525Z,56.80
2019-02-22T03:11:21.525Z,56.40
2019-02-22T03:12:21.510Z,56.40
2019-02-22T03:13:21.490Z,56.80
2019-02-22T03:14:21.507Z,56.20
2019-02-22T03:15:21.461Z,55.40
2019-02-22T03:16:21.444Z,54.90
2019-02-22T03:17:21.435Z,55.40
2019-02-22T03:18:21.456Z,55.40
2019-02-22T03:19:21.446Z,57.10
2019-02-22T03:20:21.403Z,56.00
2019-02-22T03:21:21.389Z,55.40
2019-02-22T03:22:21.378Z,56.00
2019-02-22T03:23:21.378Z,56.90
2019-02-22T03:24:21.365Z,59.20
2019-02-22T03:25:21.401Z,56.30
2019-02-22T03:26:21.339Z,58.60
2019-02-22T03:27:21.358Z,57.60
2019-02-22T03:28:21.341Z,54.20
2019-02-22T03:29:21.325Z,55.40
2019-02-22T03:30:21.346Z,54.70
2019-02-22T03:31:21.536Z,54.50
2019-02-22T03:32:21.276Z,57.20
2019-02-22T03:33:21.280Z,55.50
2019-02-22T03:34:21.359Z,54.70
2019-02-22T03:35:21.244Z,55.00
2019-02-22T03:36:22.159Z,54.80
2019-02-22T03:37:21.358Z,56.20
2019-02-22T03:38:21.199Z,55.00
2019-02-22T03:39:21.246Z,55.30
2019-02-22T03:40:21.196Z,55.30
2019-02-22T03:41:31.876Z,54.00
2019-02-22T03:42:22.186Z,55.70
2019-02-22T03:43:21.145Z,54.40
2019-02-22T03:44:21.136Z,53.80
2019-02-22T03:45:21.147Z,55.60
2019-02-22T03:46:21.120Z,54.40
2019-02-22T03:47:21.118Z,56.80
2019-02-22T03:48:21.091Z,55.90
2019-02-22T03:49:21.081Z,58.50
2019-02-22T03:50:21.065Z,55.20
2019-02-22T03:51:21.075Z,57.40
2019-02-22T03:52:21.049Z,55.40
2019-02-22T03:53:21.031Z,55.00
2019-02-22T03:54:21.105Z,56.00
2019-02-22T03:55:21.019Z,55.70
2019-02-22T03:56:21.025Z,57.20
2019-02-22T03:57:21.002Z,57.70
2019-02-22T03:58:20.974Z,55.20
2019-02-22T03:59:20.966Z,56.20
2019-02-22T04:00:20.964Z,57.70
2019-02-22T04:01:21.670Z,54.10
2019-02-22T04:02:20.965Z,57.60
2019-02-22T04:03:20.928Z,61.90
2019-02-22T04:04:20.957Z,57.50
2019-02-22T04:05:20.955Z,61.30
2019-02-22T04:06:20.907Z,56.30
2019-02-22T04:07:20.906Z,57.50
2019-02-22T04:08:20.865Z,57.10
2019-02-22T04:09:21.038Z,59.70
2019-02-22T04:10:20.838Z,57.70
2019-02-22T04:11:20.836Z,56.50
2019-02-22T04:12:20.830Z,57.50
2019-02-22T04:13:20.809Z,56.20
2019-02-22T04:14:20.840Z,59.70
2019-02-22T04:15:20.783Z,59.10
2019-02-22T04:16:20.780Z,60.30
2019-02-22T04:17:20.763Z,60.20
2019-02-22T04:18:20.780Z,60.80
2019-02-22T04:19:20.739Z,57.40
2019-02-22T04:20:20.892Z,56.00
2019-02-22T04:21:20.726Z,60.80
2019-02-22T04:22:20.727Z,57.90
2019-02-22T04:23:20.717Z,60.30
2019-02-22T04:24:20.702Z,59.70
2019-02-22T04:25:20.677Z,60.10
2019-02-22T04:26:20.702Z,61.30
2019-02-22T04:27:20.653Z,65.20
2019-02-22T04:28:20.668Z,62.30
2019-02-22T04:29:20.670Z,61.60
2019-02-22T04:30:20.615Z,61.70
2019-02-22T04:31:20.628Z,63.70
2019-02-22T04:32:20.596Z,60.40
2019-02-22T04:33:20.587Z,61.10
2019-02-22T04:34:20.581Z,64.40
2019-02-22T04:35:20.589Z,61.40
2019-02-22T04:36:20.567Z,58.70
2019-02-22T04:37:20.548Z,63.40
2019-02-22T04:38:20.532Z,62.60
2019-02-22T04:39:20.518Z,61.10
2019-02-22T04:40:20.554Z,61.00
2019-02-22T04:41:20.524Z,65.50
2019-02-22T04:42:20.490Z,64.80
2019-02-22T04:43:20.471Z,62.80
2019-02-22T04:44:20.475Z,63.30
2019-02-22T04:45:20.508Z,63.00
2019-02-22T04:46:20.482Z,64.60
2019-02-22T04:47:20.435Z,61.40
2019-02-22T04:48:20.440Z,65.00
2019-02-22T04:49:20.416Z,61.50
2019-02-22T04:50:20.537Z,59.90
2019-02-22T04:51:20.407Z,61.10
2019-02-22T04:52:20.382Z,64.20
2019-02-22T04:53:20.400Z,66.10
2019-02-22T04:54:20.347Z,63.10
2019-02-22T04:55:20.340Z,63.10
2019-02-22T04:56:20.326Z,63.90
2019-02-22T04:57:20.323Z,64.80
2019-02-22T04:58:20.325Z,62.70
2019-02-22T04:59:20.314Z,61.60
2019-02-22T05:00:20.282Z,61.30
2019-02-22T05:01:20.270Z,60.80
2019-02-22T05:02:20.260Z,62.90
2019-02-22T05:03:20.252Z,61.20
2019-02-22T05:04:20.269Z,58.20
2019-02-22T05:05:20.256Z,58.40
2019-02-22T05:06:20.217Z,60.00
2019-02-22T05:07:20.212Z,58.20
2019-02-22T05:08:20.201Z,59.60
2019-02-22T05:09:20.200Z,68.90
2019-02-22T05:10:20.234Z,150.30
2019-02-22T05:11:20.165Z,62.70
2019-02-22T05:12:20.152Z,63.90
2019-02-22T05:13:20.186Z,61.10
2019-02-22T05:14:20.132Z,59.80
2019-02-22T05:15:20.146Z,59.60
2019-02-22T05:16:20.123Z,64.20
2019-02-22T05:17:20.090Z,61.00
2019-02-22T05:18:20.093Z,62.00
2019-02-22T05:19:20.091Z,58.80
2019-02-22T05:20:20.209Z,58.20
2019-02-22T05:21:20.061Z,60.40
2019-02-22T05:22:20.038Z,61.60
2019-02-22T05:23:20.026Z,59.10
2019-02-22T05:24:20.041Z,62.30
2019-02-22T05:25:20.009Z,63.50
2019-02-22T05:26:20.001Z,58.20
2019-02-22T05:27:19.984Z,62.00
2019-02-22T05:28:19.990Z,62.70
2019-02-22T05:29:19.991Z,65.60
2019-02-22T05:30:19.946Z,65.60
2019-02-22T05:31:19.937Z,66.00
2019-02-22T05:32:19.959Z,69.70
2019-02-22T05:33:19.929Z,64.30
2019-02-22T05:34:19.904Z,64.60
2019-02-22T05:35:19.923Z,65.00
2019-02-22T05:36:20.801Z,69.20
2019-02-22T05:37:19.873Z,71.10
2019-02-22T05:38:19.860Z,66.50
2019-02-22T05:39:19.953Z,66.70
2019-02-22T05:40:19.838Z,69.50
2019-02-22T05:41:19.834Z,64.10
2019-02-22T05:42:22.897Z,62.50
2019-02-22T05:43:19.808Z,66.90
2019-02-22T05:44:19.802Z,64.30
2019-02-22T05:45:19.819Z,67.00
2019-02-22T05:46:19.767Z,63.90
2019-02-22T05:47:19.814Z,67.40
2019-02-22T05:48:19.744Z,103.50
2019-02-22T05:49:22.118Z,149.50
2019-02-22T05:50:19.773Z,96.10
2019-02-22T05:51:19.747Z,71.10
2019-02-22T05:52:19.705Z,70.60
2019-02-22T05:53:19.689Z,64.20
2019-02-22T05:54:19.677Z,67.20
2019-02-22T05:55:19.682Z,61.70
2019-02-22T05:56:19.691Z,64.30
2019-02-22T05:57:19.668Z,65.60
2019-02-22T05:58:19.645Z,70.80
2019-02-22T05:59:19.617Z,66.30
2019-02-22T06:00:19.623Z,64.60
2019-02-22T06:01:19.625Z,68.10
2019-02-22T06:02:19.623Z,64.70
2019-02-22T06:03:19.579Z,62.80
2019-02-22T06:04:19.573Z,62.20
2019-02-22T06:05:19.572Z,62.80
2019-02-22T06:06:19.591Z,66.20
2019-02-22T06:07:19.610Z,68.60
2019-02-22T06:08:19.549Z,67.50
2019-02-22T06:09:19.576Z,66.50
2019-02-22T06:10:19.559Z,71.20
2019-02-22T06:11:19.494Z,66.00
2019-02-22T06:12:19.511Z,64.70
2019-02-22T06:13:19.499Z,64.70
2019-02-22T06:14:19.462Z,63.90
2019-02-22T06:15:19.471Z,64.60
2019-02-22T06:16:19.433Z,67.30
2019-02-22T06:17:19.433Z,62.70
2019-02-22T06:18:19.435Z,63.50
2019-02-22T06:19:19.447Z,65.30
2019-02-22T06:20:19.413Z,62.10
2019-02-22T06:21:19.385Z,62.00
2019-02-22T06:22:28.945Z,61.60
2019-02-22T06:23:20.368Z,62.30
2019-02-22T06:24:19.350Z,61.40
2019-02-22T06:25:19.339Z,58.70
2019-02-22T06:26:19.406Z,58.40
2019-02-22T06:27:19.339Z,58.50
2019-02-22T06:28:19.319Z,64.30
2019-02-22T06:29:19.335Z,100.80
2019-02-22T06:30:19.279Z,146.10
2019-02-22T06:31:19.272Z,104.40
2019-02-22T06:32:19.296Z,70.80
2019-02-22T06:33:19.252Z,64.80
2019-02-22T06:34:19.236Z,58.90
2019-02-22T06:35:19.241Z,60.70
2019-02-22T06:36:19.348Z,57.10
2019-02-22T06:37:19.213Z,59.80
2019-02-22T06:38:19.357Z,55.70
2019-02-22T06:39:19.215Z,58.20
2019-02-22T06:40:19.180Z,58.40
2019-02-22T06:41:19.189Z,60.00
2019-02-22T06:42:19.143Z,57.50
2019-02-22T06:43:19.179Z,62.50
2019-02-22T06:44:19.127Z,59.40
2019-02-22T06:45:19.130Z,58.70
2019-02-22T06:46:19.110Z,62.30
2019-02-22T06:47:19.138Z,61.30
2019-02-22T06:48:19.078Z,59.30
2019-02-22T06:49:19.080Z,59.70
2019-02-22T06:50:19.058Z,58.10
2019-02-22T06:51:19.051Z,59.40
2019-02-22T06:52:19.041Z,62.80
2019-02-22T06:53:19.047Z,61.30
2019-02-22T06:54:19.014Z,60.20
2019-02-22T06:55:18.998Z,61.50
2019-02-22T06:56:18.998Z,61.50
2019-02-22T06:57:18.986Z,59.40
2019-02-22T06:58:18.985Z,61.60
2019-02-22T06:59:18.981Z,61.80
2019-02-22T07:00:18.964Z,60.40
2019-02-22T07:01:18.939Z,57.80
2019-02-22T07:02:18.930Z,74.60
2019-02-22T07:03:19.090Z,70.70
2019-02-22T07:04:18.902Z,72.80
2019-02-22T07:05:18.970Z,63.20
2019-02-22T07:06:19.065Z,63.50
2019-02-22T07:07:18.875Z,59.50
2019-02-22T07:08:18.862Z,58.90
2019-02-22T07:09:18.926Z,60.30
2019-02-22T07:10:18.840Z,59.80
2019-02-22T07:11:18.885Z,59.10
2019-02-22T07:12:18.826Z,58.80
2019-02-22T07:13:18.818Z,56.10
2019-02-22T07:14:18.791Z,56.20
2019-02-22T07:15:18.870Z,55.00
2019-02-22T07:16:18.810Z,59.20
2019-02-22T07:17:18.756Z,54.10
2019-02-22T07:18:18.748Z,56.30
2019-02-22T07:19:19.713Z,52.60
2019-02-22T07:20:18.752Z,56.00
2019-02-22T07:21:18.719Z,56.10
2019-02-22T07:22:18.777Z,55.20
2019-02-22T07:23:18.724Z,59.20
2019-02-22T07:24:18.681Z,61.00
2019-02-22T07:25:18.731Z,131.10
2019-02-22T07:26:18.667Z,87.20
2019-02-22T07:27:18.648Z,65.60
2019-02-22T07:28:18.635Z,60.20
2019-02-22T07:29:18.628Z,56.00
2019-02-22T07:30:18.656Z,57.10
2019-02-22T07:31:18.626Z,57.10
2019-02-22T07:32:18.621Z,55.50
2019-02-22T07:33:18.624Z,55.50
2019-02-22T07:34:18.567Z,58.20
2019-02-22T07:35:18.553Z,62.00
2019-02-22T07:36:18.599Z,54.90
2019-02-22T07:37:18.558Z,60.40
2019-02-22T07:38:18.529Z,57.50
2019-02-22T07:39:27.313Z,55.30
2019-02-22T07:40:20.083Z,56.00
2019-02-22T07:41:18.495Z,54.10
2019-02-22T07:42:18.537Z,54.80
2019-02-22T07:43:18.492Z,55.80
2019-02-22T07:44:18.469Z,54.10
2019-02-22T07:45:25.537Z,54.00
2019-02-22T07:46:18.429Z,56.20
2019-02-22T07:47:18.450Z,54.30
2019-02-22T07:48:18.411Z,55.20
2019-02-22T07:49:18.464Z,51.90
2019-02-22T07:50:18.393Z,52.40
2019-02-22T07:51:18.376Z,53.30
2019-02-22T07:52:18.482Z,52.20
2019-02-22T07:53:18.354Z,52.20
2019-02-22T07:54:18.366Z,51.10
2019-02-22T07:55:18.334Z,51.70
2019-02-22T07:56:19.186Z,57.50
2019-02-22T07:57:18.328Z,81.60
2019-02-22T07:58:18.304Z,76.10
2019-02-22T07:59:18.285Z,65.10
2019-02-22T08:00:18.298Z,54.20
2019-02-22T08:01:18.274Z,53.10
2019-02-22T08:02:18.264Z,52.40
2019-02-22T08:03:18.269Z,52.10
2019-02-22T08:04:18.239Z,51.40
2019-02-22T08:05:18.250Z,50.40
2019-02-22T08:06:18.224Z,50.80
2019-02-22T08:07:18.201Z,48.80
2019-02-22T08:08:18.400Z,47.30
2019-02-22T08:09:18.183Z,46.10
2019-02-22T08:10:18.164Z,46.20
2019-02-22T08:11:18.306Z,47.80
2019-02-22T08:12:18.147Z,46.80
2019-02-22T08:13:19.944Z,46.80
2019-02-22T08:14:18.126Z,47.30
2019-02-22T08:15:18.110Z,48.30
2019-02-22T08:16:18.100Z,48.50
2019-02-22T08:17:18.091Z,45.20
2019-02-22T08:18:18.083Z,49.50
2019-02-22T08:19:18.233Z,48.00
2019-02-22T08:20:18.055Z,48.30
2019-02-22T08:21:18.043Z,48.10
2019-02-22T08:22:20.654Z,47.00
2019-02-22T08:23:18.044Z,46.60
2019-02-22T08:24:18.015Z,45.50
2019-02-22T08:25:18.006Z,44.40
2019-02-22T08:26:17.997Z,45.40
2019-02-22T08:27:17.994Z,45.00
2019-02-22T08:28:17.971Z,45.80
2019-02-22T08:29:17.983Z,43.90
2019-02-22T08:30:17.975Z,43.20
2019-02-22T08:31:17.948Z,42.90
2019-02-22T08:32:17.922Z,43.20
2019-02-22T08:33:17.928Z,60.30
2019-02-22T08:34:17.922Z,64.00
2019-02-22T08:35:18.053Z,46.30
2019-02-22T08:36:17.895Z,49.10
2019-02-22T08:37:17.868Z,46.90
2019-02-22T08:38:17.981Z,43.90
2019-02-22T08:39:17.843Z,44.00
2019-02-22T08:40:17.872Z,44.10
2019-02-22T08:41:17.841Z,43.40
2019-02-22T08:42:17.809Z,41.70
2019-02-22T08:43:17.802Z,42.40
2019-02-22T08:44:17.792Z,42.10
2019-02-22T08:45:17.778Z,42.20
2019-02-22T08:46:17.782Z,42.00
2019-02-22T08:47:17.752Z,43.50
2019-02-22T08:48:17.754Z,42.00
2019-02-22T08:49:17.735Z,41.90
2019-02-22T08:50:17.755Z,44.70
2019-02-22T08:51:17.713Z,45.60
2019-02-22T08:52:17.698Z,42.10
2019-02-22T08:53:17.720Z,44.30
2019-02-22T08:54:17.823Z,44.50
2019-02-22T08:55:17.658Z,44.10
2019-02-22T08:56:17.652Z,44.40
2019-02-22T08:57:17.670Z,43.30
2019-02-22T08:58:17.631Z,44.70
2019-02-22T08:59:17.640Z,43.90
2019-02-22T09:00:17.604Z,45.30
2019-02-22T09:01:17.598Z,44.20
2019-02-22T09:02:17.631Z,44.70
2019-02-22T09:03:17.579Z,43.90
2019-02-22T09:04:17.567Z,42.90
2019-02-22T09:05:17.632Z,43.00
2019-02-22T09:06:17.546Z,42.60
2019-02-22T09:07:17.540Z,41.90
2019-02-22T09:08:17.519Z,41.30
2019-02-22T09:09:17.530Z,43.40
2019-02-22T09:10:17.500Z,43.20
2019-02-22T09:11:17.485Z,43.00
2019-02-22T09:12:17.471Z,41.40
2019-02-22T09:13:17.459Z,43.80
2019-02-22T09:14:17.460Z,42.40
2019-02-22T09:15:17.475Z,52.70
2019-02-22T09:16:17.452Z,44.50
2019-02-22T09:17:17.421Z,71.60
2019-02-22T09:18:17.528Z,44.30
2019-02-22T09:19:17.406Z,50.70
2019-02-22T09:20:17.477Z,44.80
2019-02-22T09:21:17.504Z,43.90
2019-02-22T09:22:23.018Z,41.60
2019-02-22T09:23:18.353Z,39.70
2019-02-22T09:24:17.339Z,39.30
2019-02-22T09:25:17.325Z,39.40
2019-02-22T09:26:17.330Z,37.80
2019-02-22T09:27:17.420Z,36.10
2019-02-22T09:28:17.289Z,37.00
2019-02-22T09:29:17.278Z,37.90
2019-02-22T09:30:17.269Z,38.10
2019-02-22T09:31:18.252Z,36.80
2019-02-22T09:32:17.282Z,37.80
2019-02-22T09:33:17.284Z,36.00
2019-02-22T09:34:17.253Z,37.50
2019-02-22T09:35:17.214Z,36.40
2019-02-22T09:36:17.223Z,36.60
2019-02-22T09:37:17.388Z,36.10
2019-02-22T09:38:17.190Z,32.90
2019-02-22T09:39:17.176Z,30.60
2019-02-22T09:40:17.174Z,29.50
2019-02-22T09:41:17.147Z,29.10
2019-02-22T09:42:17.138Z,28.60
2019-02-22T09:43:17.156Z,29.50
2019-02-22T09:44:17.143Z,30.70
2019-02-22T09:45:17.131Z,31.20
2019-02-22T09:46:17.099Z,30.10
2019-02-22T09:47:17.091Z,30.20
2019-02-22T09:48:17.139Z,31.10
2019-02-22T09:49:17.109Z,32.70
2019-02-22T09:50:17.076Z,31.80
2019-02-22T09:51:17.033Z,31.70
2019-02-22T09:52:17.021Z,30.80
2019-02-22T09:53:17.023Z,30.10
2019-02-22T09:54:17.027Z,31.60
2019-02-22T09:55:16.997Z,29.80
2019-02-22T09:56:17.031Z,29.00
2019-02-22T09:57:16.964Z,29.50
2019-02-22T09:58:16.955Z,28.70
2019-02-22T09:59:16.947Z,29.00
2019-02-22T10:00:16.954Z,28.20
2019-02-22T10:01:17.160Z,30.00
2019-02-22T10:02:16.911Z,29.00
2019-02-22T10:03:16.905Z,30.80
2019-02-22T10:04:16.966Z,30.00
2019-02-22T10:05:16.881Z,30.50
2019-02-22T10:06:16.876Z,30.90
2019-02-22T10:07:16.905Z,28.70
2019-02-22T10:08:16.876Z,29.80
2019-02-22T10:09:16.837Z,30.20
2019-02-22T10:10:16.822Z,30.40
2019-02-22T10:11:16.829Z,29.70
2019-02-22T10:12:16.799Z,29.00
2019-02-22T10:13:16.791Z,29.40
2019-02-22T10:14:16.800Z,28.80
2019-02-22T10:15:16.781Z,27.10
2019-02-22T10:16:16.767Z,27.60
2019-02-22T10:17:16.746Z,26.40
2019-02-22T10:18:16.729Z,25.40
2019-02-22T10:19:16.760Z,23.20
2019-02-22T10:20:16.780Z,21.80
2019-02-22T10:21:16.736Z,22.60
2019-02-22T10:22:16.683Z,22.30
2019-02-22T10:23:16.683Z,23.00
2019-02-22T10:24:16.675Z,21.80
2019-02-22T10:25:16.688Z,21.90
2019-02-22T10:26:16.648Z,22.60
2019-02-22T10:27:16.636Z,22.50
2019-02-22T10:28:18.067Z,22.90
2019-02-22T10:29:16.615Z,23.20
2019-02-22T10:30:16.632Z,22.90
2019-02-22T10:31:16.618Z,22.20
2019-02-22T10:32:16.591Z,22.90
2019-02-22T10:33:16.559Z,23.00
2019-02-22T10:34:16.549Z,23.50
2019-02-22T10:35:16.553Z,22.50
2019-02-22T10:36:16.562Z,22.40
2019-02-22T10:37:16.517Z,23.10
2019-02-22T10:38:16.508Z,22.40
2019-02-22T10:39:16.494Z,22.60
2019-02-22T10:40:16.511Z,22.00
2019-02-22T10:41:16.635Z,23.60
2019-02-22T10:42:16.463Z,22.20
2019-02-22T10:43:16.473Z,22.80
2019-02-22T10:44:17.971Z,23.90
2019-02-22T10:45:16.468Z,22.90
2019-02-22T10:46:16.425Z,23.80
2019-02-22T10:47:16.426Z,23.50
2019-02-22T10:48:16.414Z,23.20
2019-02-22T10:49:16.412Z,22.50
2019-02-22T10:50:16.387Z,21.30
2019-02-22T10:51:16.377Z,22.00
2019-02-22T10:52:16.357Z,21.70
2019-02-22T10:53:16.443Z,21.80
2019-02-22T10:54:16.326Z,21.80
2019-02-22T10:55:16.326Z,22.40
2019-02-22T10:56:16.309Z,23.10
2019-02-22T10:57:16.297Z,22.30
2019-02-22T10:58:16.292Z,22.20
2019-02-22T10:59:16.290Z,20.90
2019-02-22T11:00:16.290Z,21.10
2019-02-22T11:01:16.362Z,20.60
2019-02-22T11:02:16.243Z,21.00
2019-02-22T11:03:16.231Z,20.50
2019-02-22T11:04:16.303Z,20.60
2019-02-22T11:05:16.210Z,21.30
2019-02-22T11:06:16.223Z,20.90
2019-02-22T11:07:16.203Z,21.40
2019-02-22T11:08:16.174Z,21.00
2019-02-22T11:09:16.170Z,20.50
2019-02-22T11:10:16.221Z,20.00
2019-02-22T11:11:16.153Z,19.50
2019-02-22T11:12:16.160Z,18.80
2019-02-22T11:13:16.113Z,18.00
2019-02-22T11:14:16.109Z,18.40
2019-02-22T11:15:16.094Z,18.20
2019-02-22T11:16:16.129Z,19.10
2019-02-22T11:17:16.164Z,18.90
2019-02-22T11:18:16.071Z,17.80
2019-02-22T11:19:16.056Z,19.00
2019-02-22T11:20:16.110Z,17.40
2019-02-22T11:21:16.027Z,17.80
2019-02-22T11:22:16.056Z,16.40
2019-02-22T11:23:16.003Z,16.30
2019-02-22T11:24:15.991Z,15.80
2019-02-22T11:25:15.980Z,16.00
2019-02-22T11:26:15.978Z,13.20
2019-02-22T11:27:15.982Z,11.40
2019-02-22T11:28:15.992Z,9.70
2019-02-22T11:29:15.936Z,8.50
2019-02-22T11:30:15.936Z,8.60
2019-02-22T11:31:17.365Z,8.40
2019-02-22T11:32:15.915Z,8.30
2019-02-22T11:33:16.139Z,8.40
2019-02-22T11:34:15.890Z,9.20
2019-02-22T11:35:15.870Z,9.20
2019-02-22T11:36:15.988Z,9.50
2019-02-22T11:37:15.871Z,9.70
2019-02-22T11:38:15.869Z,9.80
2019-02-22T11:39:15.870Z,10.80
2019-02-22T11:40:15.814Z,11.40
2019-02-22T11:41:15.829Z,11.60
2019-02-22T11:42:15.805Z,10.80
2019-02-22T11:43:15.796Z,10.70
2019-02-22T11:44:15.856Z,10.60
2019-02-22T11:45:15.791Z,10.50
2019-02-22T11:46:15.753Z,10.20
2019-02-22T11:47:15.752Z,10.90
2019-02-22T11:48:15.733Z,10.00
2019-02-22T11:49:15.727Z,10.20
2019-02-22T11:50:15.705Z,10.80
2019-02-22T11:51:15.718Z,12.90
2019-02-22T11:52:15.688Z,14.80
2019-02-22T11:53:15.674Z,16.40
2019-02-22T11:54:15.659Z,15.80
2019-02-22T11:55:15.668Z,16.90
2019-02-22T11:56:15.640Z,16.50
2019-02-22T11:57:15.634Z,17.60
2019-02-22T11:58:15.667Z,17.90
2019-02-22T11:59:15.628Z,17.30
2019-02-22T12:00:15.699Z,17.20
2019-02-22T12:01:15.641Z,16.30
2019-02-22T12:02:15.570Z,16.00
2019-02-22T12:03:24.225Z,15.90
2019-02-22T12:04:16.552Z,16.70
2019-02-22T12:05:15.551Z,16.00
2019-02-22T12:06:15.544Z,16.60
2019-02-22T12:07:15.546Z,15.80
2019-02-22T12:08:15.529Z,15.10
2019-02-22T12:09:15.497Z,15.10
2019-02-22T12:10:15.479Z,14.90
2019-02-22T12:11:15.477Z,13.20
2019-02-22T12:12:15.490Z,13.10
2019-02-22T12:13:15.455Z,13.80
2019-02-22T12:14:15.446Z,13.50
2019-02-22T12:15:15.422Z,12.40
2019-02-22T12:16:15.599Z,12.40
2019-02-22T12:17:15.406Z,12.60
2019-02-22T12:18:15.389Z,12.20
2019-02-22T12:19:15.435Z,12.20
2019-02-22T12:20:15.367Z,12.40
2019-02-22T12:21:15.388Z,11.80
2019-02-22T12:22:15.345Z,12.70
2019-02-22T12:23:15.345Z,11.70
2019-02-22T12:24:15.321Z,11.30
2019-02-22T12:25:15.354Z,10.60
2019-02-22T12:26:15.298Z,10.90
2019-02-22T12:27:15.315Z,10.90
2019-02-22T12:28:15.282Z,11.10
2019-02-22T12:29:15.296Z,10.70
2019-02-22T12:30:15.258Z,10.70
2019-02-22T12:31:15.261Z,11.30
2019-02-22T12:32:15.238Z,11.80
2019-02-22T12:33:15.227Z,11.90
2019-02-22T12:34:15.249Z,23.00
2019-02-22T12:35:15.240Z,44.30
2019-02-22T12:36:15.185Z,22.50
2019-02-22T12:37:15.200Z,30.40
2019-02-22T12:38:15.185Z,22.40
2019-02-22T12:39:15.188Z,13.00
2019-02-22T12:40:15.802Z,13.20
2019-02-22T12:41:15.155Z,13.40
2019-02-22T12:42:15.126Z,13.00
2019-02-22T12:43:15.145Z,12.40
2019-02-22T12:44:15.097Z,12.60
2019-02-22T12:45:15.122Z,13.10
2019-02-22T12:46:15.073Z,13.20
2019-02-22T12:47:15.070Z,12.90
2019-02-22T12:48:15.047Z,12.20
2019-02-22T12:49:15.041Z,12.30
2019-02-22T12:50:15.036Z,11.90
2019-02-22T12:51:15.042Z,12.40
2019-02-22T12:52:15.028Z,11.70